sensor_id;sensor_type;location;lat;lon;timestamp;temperature;humidity
29031;DHT22;16122;50.236;11.734;2023-03-14T00:01:50;16.50;58.00
29031;DHT22;16122;50.236;11.734;2023-03-14T00:04:16;16.50;58.00
29031;DHT22;16122;50.236;11.734;2023-03-14T00:06:42;16.50;58.00
29031;DHT22;16122;50.236;11.734;2023-03-14T00:09:08;16.50;58.00
29031;DHT22;16122;50.236;11.734;2023-03-14T00:11:34;16.50;57.90
29031;DHT22;16122;50.236;11.734;2023-03-14T00:14:00;16.50;57.90
29031;DHT22;16122;50.236;11.734;2023-03-14T00:16:26;16.50;57.90
29031;DHT22;16122;50.236;11.734;2023-03-14T00:18:52;16.50;57.90
29031;DHT22;16122;50.236;11.734;2023-03-14T00:21:18;16.50;57.90
29031;DHT22;16122;50.236;11.734;2023-03-14T00:23:44;16.50;57.90
29031;DHT22;16122;50.236;11.734;2023-03-14T00:26:12;16.60;57.90
29031;DHT22;16122;50.236;11.734;2023-03-14T00:28:40;16.60;58.00
29031;DHT22;16122;50.236;11.734;2023-03-14T00:31:10;16.60;57.90
29031;DHT22;16122;50.236;11.734;2023-03-14T00:33:36;16.50;57.80
29031;DHT22;16122;50.236;11.734;2023-03-14T00:36:08;16.50;57.70
29031;DHT22;16122;50.236;11.734;2023-03-14T00:38:37;16.50;57.70
29031;DHT22;16122;50.236;11.734;2023-03-14T00:41:06;16.50;57.70
29031;DHT22;16122;50.236;11.734;2023-03-14T00:43:32;16.50;57.70
29031;DHT22;16122;50.236;11.734;2023-03-14T00:45:58;16.50;58.20
29031;DHT22;16122;50.236;11.734;2023-03-14T00:48:26;16.50;57.60
29031;DHT22;16122;50.236;11.734;2023-03-14T00:50:52;16.60;57.70
29031;DHT22;16122;50.236;11.734;2023-03-14T00:53:18;16.60;57.70
29031;DHT22;16122;50.236;11.734;2023-03-14T00:55:44;16.60;57.60
29031;DHT22;16122;50.236;11.734;2023-03-14T00:58:12;16.60;57.60
29031;DHT22;16122;50.236;11.734;2023-03-14T01:00:39;16.60;57.60
29031;DHT22;16122;50.236;11.734;2023-03-14T01:03:06;16.60;57.60
29031;DHT22;16122;50.236;11.734;2023-03-14T01:05:32;16.60;57.60
29031;DHT22;16122;50.236;11.734;2023-03-14T01:07:58;16.60;57.50
29031;DHT22;16122;50.236;11.734;2023-03-14T01:10:23;16.60;57.50
29031;DHT22;16122;50.236;11.734;2023-03-14T01:12:49;16.60;57.50
29031;DHT22;16122;50.236;11.734;2023-03-14T01:15:15;16.60;57.40
29031;DHT22;16122;50.236;11.734;2023-03-14T01:17:41;16.60;57.40
29031;DHT22;16122;50.236;11.734;2023-03-14T01:20:09;16.60;57.40
29031;DHT22;16122;50.236;11.734;2023-03-14T01:22:36;16.70;57.40
29031;DHT22;16122;50.236;11.734;2023-03-14T01:25:08;16.60;57.30
29031;DHT22;16122;50.236;11.734;2023-03-14T01:27:34;16.70;57.40
29031;DHT22;16122;50.236;11.734;2023-03-14T01:30:00;16.70;57.40
29031;DHT22;16122;50.236;11.734;2023-03-14T01:32:26;16.60;57.30
29031;DHT22;16122;50.236;11.734;2023-03-14T01:34:52;16.60;57.20
29031;DHT22;16122;50.236;11.734;2023-03-14T01:37:18;16.70;57.30
29031;DHT22;16122;50.236;11.734;2023-03-14T01:39:46;16.70;57.30
29031;DHT22;16122;50.236;11.734;2023-03-14T01:42:12;16.60;57.10
29031;DHT22;16122;50.236;11.734;2023-03-14T01:44:52;16.60;57.10
29031;DHT22;16122;50.236;11.734;2023-03-14T01:47:18;16.70;57.20
29031;DHT22;16122;50.236;11.734;2023-03-14T01:49:48;16.70;57.20
29031;DHT22;16122;50.236;11.734;2023-03-14T01:52:26;16.70;57.10
29031;DHT22;16122;50.236;11.734;2023-03-14T01:54:57;16.70;57.10
29031;DHT22;16122;50.236;11.734;2023-03-14T01:57:49;16.70;57.10
29031;DHT22;16122;50.236;11.734;2023-03-14T02:00:18;16.70;57.10
29031;DHT22;16122;50.236;11.734;2023-03-14T02:03:09;16.70;57.00
29031;DHT22;16122;50.236;11.734;2023-03-14T02:05:38;16.70;57.00
29031;DHT22;16122;50.236;11.734;2023-03-14T02:08:18;16.70;57.00
29031;DHT22;16122;50.236;11.734;2023-03-14T02:10:50;16.70;57.00
29031;DHT22;16122;50.236;11.734;2023-03-14T02:13:21;16.70;57.50
29031;DHT22;16122;50.236;11.734;2023-03-14T02:16:06;16.70;56.90
29031;DHT22;16122;50.236;11.734;2023-03-14T02:18:55;16.70;56.80
29031;DHT22;16122;50.236;11.734;2023-03-14T02:21:59;16.70;56.90
29031;DHT22;16122;50.236;11.734;2023-03-14T02:27:13;16.70;56.80
29031;DHT22;16122;50.236;11.734;2023-03-14T02:30:00;16.70;56.70
29031;DHT22;16122;50.236;11.734;2023-03-14T02:32:32;16.70;56.70
29031;DHT22;16122;50.236;11.734;2023-03-14T02:35:01;16.70;56.80
29031;DHT22;16122;50.236;11.734;2023-03-14T02:37:46;16.70;56.60
29031;DHT22;16122;50.236;11.734;2023-03-14T02:40:13;16.70;56.70
29031;DHT22;16122;50.236;11.734;2023-03-14T02:42:41;16.70;56.60
29031;DHT22;16122;50.236;11.734;2023-03-14T02:47:39;16.70;56.50
29031;DHT22;16122;50.236;11.734;2023-03-14T02:50:12;16.70;56.50
29031;DHT22;16122;50.236;11.734;2023-03-14T02:52:38;16.70;56.50
29031;DHT22;16122;50.236;11.734;2023-03-14T02:55:05;16.70;56.50
29031;DHT22;16122;50.236;11.734;2023-03-14T02:57:32;16.70;56.50
29031;DHT22;16122;50.236;11.734;2023-03-14T02:59:59;16.70;56.40
29031;DHT22;16122;50.236;11.734;2023-03-14T03:02:26;16.70;56.40
29031;DHT22;16122;50.236;11.734;2023-03-14T03:04:52;16.70;56.50
29031;DHT22;16122;50.236;11.734;2023-03-14T03:07:21;16.70;56.40
29031;DHT22;16122;50.236;11.734;2023-03-14T03:09:47;16.70;56.40
29031;DHT22;16122;50.236;11.734;2023-03-14T03:12:13;16.70;56.40
29031;DHT22;16122;50.236;11.734;2023-03-14T03:14:39;16.80;56.40
29031;DHT22;16122;50.236;11.734;2023-03-14T03:17:05;16.70;56.30
29031;DHT22;16122;50.236;11.734;2023-03-14T03:19:33;16.80;56.40
29031;DHT22;16122;50.236;11.734;2023-03-14T03:21:59;16.70;56.30
29031;DHT22;16122;50.236;11.734;2023-03-14T03:24:26;16.70;56.30
29031;DHT22;16122;50.236;11.734;2023-03-14T03:26:52;16.70;56.30
29031;DHT22;16122;50.236;11.734;2023-03-14T03:29:18;16.70;56.20
29031;DHT22;16122;50.236;11.734;2023-03-14T03:31:45;16.70;56.30
29031;DHT22;16122;50.236;11.734;2023-03-14T03:34:12;16.80;56.30
29031;DHT22;16122;50.236;11.734;2023-03-14T03:36:39;16.70;56.30
29031;DHT22;16122;50.236;11.734;2023-03-14T03:39:05;16.70;56.20
29031;DHT22;16122;50.236;11.734;2023-03-14T03:41:31;16.70;56.20
29031;DHT22;16122;50.236;11.734;2023-03-14T03:43:58;16.70;56.30
29031;DHT22;16122;50.236;11.734;2023-03-14T03:46:25;16.70;56.20
29031;DHT22;16122;50.236;11.734;2023-03-14T03:48:59;16.70;56.10
29031;DHT22;16122;50.236;11.734;2023-03-14T03:51:27;16.70;56.10
29031;DHT22;16122;50.236;11.734;2023-03-14T03:53:53;16.70;56.10
29031;DHT22;16122;50.236;11.734;2023-03-14T03:56:25;16.70;56.10
29031;DHT22;16122;50.236;11.734;2023-03-14T03:58:51;16.70;56.20
29031;DHT22;16122;50.236;11.734;2023-03-14T04:01:17;16.70;56.10
29031;DHT22;16122;50.236;11.734;2023-03-14T04:03:46;16.70;56.10
29031;DHT22;16122;50.236;11.734;2023-03-14T04:06:13;16.70;56.10
29031;DHT22;16122;50.236;11.734;2023-03-14T04:08:42;16.70;56.10
29031;DHT22;16122;50.236;11.734;2023-03-14T04:11:13;16.80;56.20
29031;DHT22;16122;50.236;11.734;2023-03-14T04:13:53;16.80;56.10
29031;DHT22;16122;50.236;11.734;2023-03-14T04:16:23;16.70;56.00
29031;DHT22;16122;50.236;11.734;2023-03-14T04:18:52;16.70;56.00
29031;DHT22;16122;50.236;11.734;2023-03-14T04:21:20;16.70;55.90
29031;DHT22;16122;50.236;11.734;2023-03-14T04:23:49;16.70;55.90
29031;DHT22;16122;50.236;11.734;2023-03-14T04:26:17;16.80;56.00
29031;DHT22;16122;50.236;11.734;2023-03-14T04:28:43;16.80;56.00
29031;DHT22;16122;50.236;11.734;2023-03-14T04:31:12;16.70;55.90
29031;DHT22;16122;50.236;11.734;2023-03-14T04:33:38;16.70;55.90
29031;DHT22;16122;50.236;11.734;2023-03-14T04:36:05;16.70;55.80
29031;DHT22;16122;50.236;11.734;2023-03-14T04:38:32;16.70;55.80
29031;DHT22;16122;50.236;11.734;2023-03-14T04:40:59;16.70;55.80
29031;DHT22;16122;50.236;11.734;2023-03-14T04:43:30;16.70;55.70
29031;DHT22;16122;50.236;11.734;2023-03-14T04:46:03;16.70;55.80
29031;DHT22;16122;50.236;11.734;2023-03-14T04:48:29;16.70;55.70
29031;DHT22;16122;50.236;11.734;2023-03-14T04:50:55;16.70;55.70
29031;DHT22;16122;50.236;11.734;2023-03-14T04:53:21;16.70;55.70
29031;DHT22;16122;50.236;11.734;2023-03-14T04:55:53;16.70;55.80
29031;DHT22;16122;50.236;11.734;2023-03-14T04:58:22;16.70;55.70
29031;DHT22;16122;50.236;11.734;2023-03-14T05:00:49;16.80;55.80
29031;DHT22;16122;50.236;11.734;2023-03-14T05:03:45;16.70;55.80
29031;DHT22;16122;50.236;11.734;2023-03-14T05:06:49;16.80;55.80
29031;DHT22;16122;50.236;11.734;2023-03-14T05:09:41;16.80;55.90
29031;DHT22;16122;50.236;11.734;2023-03-14T05:12:10;16.70;55.90
29031;DHT22;16122;50.236;11.734;2023-03-14T05:14:58;16.70;56.20
29031;DHT22;16122;50.236;11.734;2023-03-14T05:17:44;16.80;56.40
29031;DHT22;16122;50.236;11.734;2023-03-14T05:20:34;16.70;56.50
29031;DHT22;16122;50.236;11.734;2023-03-14T05:23:27;16.80;56.50
29031;DHT22;16122;50.236;11.734;2023-03-14T05:26:11;16.80;56.60
29031;DHT22;16122;50.236;11.734;2023-03-14T05:28:56;16.80;56.60
29031;DHT22;16122;50.236;11.734;2023-03-14T05:31:40;16.80;56.60
29031;DHT22;16122;50.236;11.734;2023-03-14T05:34:24;16.80;57.40
29031;DHT22;16122;50.236;11.734;2023-03-14T05:37:15;16.80;56.80
29031;DHT22;16122;50.236;11.734;2023-03-14T05:40:07;16.80;56.90
29031;DHT22;16122;50.236;11.734;2023-03-14T05:42:54;16.80;56.80
29031;DHT22;16122;50.236;11.734;2023-03-14T05:45:40;16.80;56.60
29031;DHT22;16122;50.236;11.734;2023-03-14T05:48:26;16.80;56.60
29031;DHT22;16122;50.236;11.734;2023-03-14T05:51:05;16.80;56.50
29031;DHT22;16122;50.236;11.734;2023-03-14T05:54:04;16.80;56.50
29031;DHT22;16122;50.236;11.734;2023-03-14T05:57:02;16.80;56.50
29031;DHT22;16122;50.236;11.734;2023-03-14T05:59:27;16.80;56.40
29031;DHT22;16122;50.236;11.734;2023-03-14T06:02:12;16.80;56.40
29031;DHT22;16122;50.236;11.734;2023-03-14T06:04:49;16.80;56.40
29031;DHT22;16122;50.236;11.734;2023-03-14T06:07:15;16.80;56.40
29031;DHT22;16122;50.236;11.734;2023-03-14T06:09:41;16.80;56.40
29031;DHT22;16122;50.236;11.734;2023-03-14T06:12:08;16.80;56.30
29031;DHT22;16122;50.236;11.734;2023-03-14T06:14:39;16.80;56.30
29031;DHT22;16122;50.236;11.734;2023-03-14T06:17:05;16.80;56.30
29031;DHT22;16122;50.236;11.734;2023-03-14T06:19:38;16.80;56.20
29031;DHT22;16122;50.236;11.734;2023-03-14T06:22:04;16.80;56.30
29031;DHT22;16122;50.236;11.734;2023-03-14T06:24:32;16.80;56.30
29031;DHT22;16122;50.236;11.734;2023-03-14T06:26:59;16.80;56.20
29031;DHT22;16122;50.236;11.734;2023-03-14T06:29:25;16.80;56.30
29031;DHT22;16122;50.236;11.734;2023-03-14T06:31:51;16.80;56.30
29031;DHT22;16122;50.236;11.734;2023-03-14T06:34:18;16.80;56.30
29031;DHT22;16122;50.236;11.734;2023-03-14T06:36:44;16.80;56.20
29031;DHT22;16122;50.236;11.734;2023-03-14T06:39:10;16.80;56.10
29031;DHT22;16122;50.236;11.734;2023-03-14T06:41:39;16.80;56.20
29031;DHT22;16122;50.236;11.734;2023-03-14T06:44:06;16.80;56.20
29031;DHT22;16122;50.236;11.734;2023-03-14T06:46:32;16.80;56.10
29031;DHT22;16122;50.236;11.734;2023-03-14T06:48:58;16.80;56.20
29031;DHT22;16122;50.236;11.734;2023-03-14T06:51:24;16.80;56.10
29031;DHT22;16122;50.236;11.734;2023-03-14T06:53:50;16.80;56.20
29031;DHT22;16122;50.236;11.734;2023-03-14T06:56:18;16.80;56.20
29031;DHT22;16122;50.236;11.734;2023-03-14T06:58:44;16.80;56.10
29031;DHT22;16122;50.236;11.734;2023-03-14T07:01:25;16.80;56.10
29031;DHT22;16122;50.236;11.734;2023-03-14T07:03:53;16.80;56.10
29031;DHT22;16122;50.236;11.734;2023-03-14T07:06:21;16.80;56.10
29031;DHT22;16122;50.236;11.734;2023-03-14T07:08:47;16.80;56.10
29031;DHT22;16122;50.236;11.734;2023-03-14T07:11:15;16.80;56.10
29031;DHT22;16122;50.236;11.734;2023-03-14T07:13:41;16.80;56.00
29031;DHT22;16122;50.236;11.734;2023-03-14T07:16:08;16.80;56.10
29031;DHT22;16122;50.236;11.734;2023-03-14T07:18:35;16.80;56.10
29031;DHT22;16122;50.236;11.734;2023-03-14T07:21:05;16.80;56.10
29031;DHT22;16122;50.236;11.734;2023-03-14T07:23:32;16.80;56.10
29031;DHT22;16122;50.236;11.734;2023-03-14T07:25:57;16.80;56.00
29031;DHT22;16122;50.236;11.734;2023-03-14T07:28:25;16.80;56.00
29031;DHT22;16122;50.236;11.734;2023-03-14T07:30:59;16.80;56.00
29031;DHT22;16122;50.236;11.734;2023-03-14T07:33:30;16.80;56.00
29031;DHT22;16122;50.236;11.734;2023-03-14T07:35:56;16.80;56.00
29031;DHT22;16122;50.236;11.734;2023-03-14T07:38:22;16.80;56.00
29031;DHT22;16122;50.236;11.734;2023-03-14T07:41:07;16.80;56.00
29031;DHT22;16122;50.236;11.734;2023-03-14T07:43:38;16.80;56.00
29031;DHT22;16122;50.236;11.734;2023-03-14T07:46:05;16.80;55.90
29031;DHT22;16122;50.236;11.734;2023-03-14T07:48:31;16.80;55.90
29031;DHT22;16122;50.236;11.734;2023-03-14T07:50:57;16.80;55.80
29031;DHT22;16122;50.236;11.734;2023-03-14T07:53:23;16.80;55.80
29031;DHT22;16122;50.236;11.734;2023-03-14T07:55:51;16.80;55.80
29031;DHT22;16122;50.236;11.734;2023-03-14T07:58:18;16.80;55.80
29031;DHT22;16122;50.236;11.734;2023-03-14T08:00:44;16.80;55.80
29031;DHT22;16122;50.236;11.734;2023-03-14T08:03:10;16.80;55.80
29031;DHT22;16122;50.236;11.734;2023-03-14T08:05:36;16.80;55.80
29031;DHT22;16122;50.236;11.734;2023-03-14T08:08:03;16.80;55.60
29031;DHT22;16122;50.236;11.734;2023-03-14T08:10:30;16.80;55.60
29031;DHT22;16122;50.236;11.734;2023-03-14T08:12:58;16.80;55.60
29031;DHT22;16122;50.236;11.734;2023-03-14T08:15:25;16.80;55.60
29031;DHT22;16122;50.236;11.734;2023-03-14T08:17:51;16.80;55.60
29031;DHT22;16122;50.236;11.734;2023-03-14T08:20:18;16.80;55.40
29031;DHT22;16122;50.236;11.734;2023-03-14T08:22:44;16.80;55.50
29031;DHT22;16122;50.236;11.734;2023-03-14T08:25:10;16.80;55.50
29031;DHT22;16122;50.236;11.734;2023-03-14T08:27:37;16.80;55.50
29031;DHT22;16122;50.236;11.734;2023-03-14T08:30:10;16.80;55.40
29031;DHT22;16122;50.236;11.734;2023-03-14T08:32:36;16.70;55.40
29031;DHT22;16122;50.236;11.734;2023-03-14T08:35:03;16.80;55.40
29031;DHT22;16122;50.236;11.734;2023-03-14T08:37:31;16.80;55.30
29031;DHT22;16122;50.236;11.734;2023-03-14T08:39:57;16.80;55.40
29031;DHT22;16122;50.236;11.734;2023-03-14T08:42:24;16.80;55.40
29031;DHT22;16122;50.236;11.734;2023-03-14T08:44:53;16.80;55.30
29031;DHT22;16122;50.236;11.734;2023-03-14T08:47:19;16.80;55.30
29031;DHT22;16122;50.236;11.734;2023-03-14T08:49:45;16.80;55.30
29031;DHT22;16122;50.236;11.734;2023-03-14T08:52:11;16.80;55.30
29031;DHT22;16122;50.236;11.734;2023-03-14T08:54:37;16.80;55.30
29031;DHT22;16122;50.236;11.734;2023-03-14T08:57:03;16.80;55.20
29031;DHT22;16122;50.236;11.734;2023-03-14T08:59:28;16.90;55.20
29031;DHT22;16122;50.236;11.734;2023-03-14T09:01:54;16.80;55.20
29031;DHT22;16122;50.236;11.734;2023-03-14T09:04:20;16.80;55.20
29031;DHT22;16122;50.236;11.734;2023-03-14T09:06:47;16.80;55.20
29031;DHT22;16122;50.236;11.734;2023-03-14T09:09:13;16.80;55.20
29031;DHT22;16122;50.236;11.734;2023-03-14T09:11:39;16.80;55.10
29031;DHT22;16122;50.236;11.734;2023-03-14T09:14:05;16.80;55.00
29031;DHT22;16122;50.236;11.734;2023-03-14T09:16:33;16.80;55.20
29031;DHT22;16122;50.236;11.734;2023-03-14T09:18:59;16.80;55.00
29031;DHT22;16122;50.236;11.734;2023-03-14T09:21:26;16.80;55.00
29031;DHT22;16122;50.236;11.734;2023-03-14T09:23:52;16.90;55.00
29031;DHT22;16122;50.236;11.734;2023-03-14T09:26:19;16.90;54.90
29031;DHT22;16122;50.236;11.734;2023-03-14T09:28:45;16.80;54.90
29031;DHT22;16122;50.236;11.734;2023-03-14T09:31:12;16.80;55.10
29031;DHT22;16122;50.236;11.734;2023-03-14T09:33:38;16.80;55.10
29031;DHT22;16122;50.236;11.734;2023-03-14T09:36:05;16.80;55.10
29031;DHT22;16122;50.236;11.734;2023-03-14T09:38:31;16.80;55.00
29031;DHT22;16122;50.236;11.734;2023-03-14T09:41:00;16.80;55.00
29031;DHT22;16122;50.236;11.734;2023-03-14T09:43:29;16.90;55.10
29031;DHT22;16122;50.236;11.734;2023-03-14T09:45:57;16.80;54.90
29031;DHT22;16122;50.236;11.734;2023-03-14T09:48:29;16.90;55.10
29031;DHT22;16122;50.236;11.734;2023-03-14T09:50:57;16.80;55.00
29031;DHT22;16122;50.236;11.734;2023-03-14T09:53:39;16.80;55.00
29031;DHT22;16122;50.236;11.734;2023-03-14T09:56:11;16.80;55.00
29031;DHT22;16122;50.236;11.734;2023-03-14T09:58:40;16.80;54.90
29031;DHT22;16122;50.236;11.734;2023-03-14T10:01:09;16.90;55.00
29031;DHT22;16122;50.236;11.734;2023-03-14T10:03:36;16.90;55.00
29031;DHT22;16122;50.236;11.734;2023-03-14T10:06:02;16.90;54.90
29031;DHT22;16122;50.236;11.734;2023-03-14T10:08:34;16.90;55.00
29031;DHT22;16122;50.236;11.734;2023-03-14T10:11:00;16.90;55.00
29031;DHT22;16122;50.236;11.734;2023-03-14T10:13:27;16.90;55.00
29031;DHT22;16122;50.236;11.734;2023-03-14T10:16:00;16.90;55.00
29031;DHT22;16122;50.236;11.734;2023-03-14T10:18:29;16.90;55.00
29031;DHT22;16122;50.236;11.734;2023-03-14T10:21:21;16.90;55.00
29031;DHT22;16122;50.236;11.734;2023-03-14T10:23:47;16.90;54.90
29031;DHT22;16122;50.236;11.734;2023-03-14T10:26:16;16.90;55.00
29031;DHT22;16122;50.236;11.734;2023-03-14T10:28:47;16.90;55.00
29031;DHT22;16122;50.236;11.734;2023-03-14T10:31:15;16.90;55.00
29031;DHT22;16122;50.236;11.734;2023-03-14T10:33:41;16.90;55.00
29031;DHT22;16122;50.236;11.734;2023-03-14T10:36:34;17.00;55.00
29031;DHT22;16122;50.236;11.734;2023-03-14T10:39:22;16.90;55.00
29031;DHT22;16122;50.236;11.734;2023-03-14T10:41:52;16.90;54.90
29031;DHT22;16122;50.236;11.734;2023-03-14T10:44:23;16.90;54.90
29031;DHT22;16122;50.236;11.734;2023-03-14T10:47:02;16.90;54.90
29031;DHT22;16122;50.236;11.734;2023-03-14T10:49:36;16.90;54.80
29031;DHT22;16122;50.236;11.734;2023-03-14T10:54:34;16.90;54.70
29031;DHT22;16122;50.236;11.734;2023-03-14T10:57:04;16.90;54.80
29031;DHT22;16122;50.236;11.734;2023-03-14T10:59:36;16.90;54.80
29031;DHT22;16122;50.236;11.734;2023-03-14T11:07:42;16.90;54.70
29031;DHT22;16122;50.236;11.734;2023-03-14T11:26:35;16.90;55.60
29031;DHT22;16122;50.236;11.734;2023-03-14T11:29:22;16.90;55.60
29031;DHT22;16122;50.236;11.734;2023-03-14T11:31:54;16.90;55.50
29031;DHT22;16122;50.236;11.734;2023-03-14T11:34:39;16.90;55.40
29031;DHT22;16122;50.236;11.734;2023-03-14T11:37:23;16.90;55.40
29031;DHT22;16122;50.236;11.734;2023-03-14T11:40:12;16.90;55.40
29031;DHT22;16122;50.236;11.734;2023-03-14T11:42:43;17.00;55.40
29031;DHT22;16122;50.236;11.734;2023-03-14T11:45:17;16.90;55.40
29031;DHT22;16122;50.236;11.734;2023-03-14T11:47:48;16.90;55.40
29031;DHT22;16122;50.236;11.734;2023-03-14T11:50:21;16.90;55.50
29031;DHT22;16122;50.236;11.734;2023-03-14T11:55:36;16.90;55.30
29031;DHT22;16122;50.236;11.734;2023-03-14T11:58:20;16.90;55.40
29031;DHT22;16122;50.236;11.734;2023-03-14T12:00:48;16.90;55.30
29031;DHT22;16122;50.236;11.734;2023-03-14T12:03:44;16.90;55.30
29031;DHT22;16122;50.236;11.734;2023-03-14T12:09:03;16.90;55.30
29031;DHT22;16122;50.236;11.734;2023-03-14T12:14:01;16.90;55.30
29031;DHT22;16122;50.236;11.734;2023-03-14T12:16:38;16.90;55.20
29031;DHT22;16122;50.236;11.734;2023-03-14T12:24:30;16.90;55.80
29031;DHT22;16122;50.236;11.734;2023-03-14T12:27:01;16.80;55.60
29031;DHT22;16122;50.236;11.734;2023-03-14T12:29:28;16.90;55.70
29031;DHT22;16122;50.236;11.734;2023-03-14T12:34:30;16.80;55.70
29031;DHT22;16122;50.236;11.734;2023-03-14T12:37:28;16.80;55.90
29031;DHT22;16122;50.236;11.734;2023-03-14T12:42:57;16.80;55.60
29031;DHT22;16122;50.236;11.734;2023-03-14T12:45:36;16.90;55.70
29031;DHT22;16122;50.236;11.734;2023-03-14T12:48:14;16.80;55.90
29031;DHT22;16122;50.236;11.734;2023-03-14T12:50:46;16.80;55.50
29031;DHT22;16122;50.236;11.734;2023-03-14T12:53:22;16.90;55.60
29031;DHT22;16122;50.236;11.734;2023-03-14T13:02:21;16.90;55.50
29031;DHT22;16122;50.236;11.734;2023-03-14T13:05:05;16.90;55.40
29031;DHT22;16122;50.236;11.734;2023-03-14T13:10:47;16.90;55.50
29031;DHT22;16122;50.236;11.734;2023-03-14T13:13:19;16.80;55.50
29031;DHT22;16122;50.236;11.734;2023-03-14T13:15:47;16.90;55.60
29031;DHT22;16122;50.236;11.734;2023-03-14T13:18:17;16.80;55.40
29031;DHT22;16122;50.236;11.734;2023-03-14T13:21:02;16.90;55.50
29031;DHT22;16122;50.236;11.734;2023-03-14T13:23:34;16.90;55.50
29031;DHT22;16122;50.236;11.734;2023-03-14T13:26:01;16.80;55.40
29031;DHT22;16122;50.236;11.734;2023-03-14T13:28:28;16.80;55.30
29031;DHT22;16122;50.236;11.734;2023-03-14T13:30:58;16.80;55.50
29031;DHT22;16122;50.236;11.734;2023-03-14T13:33:24;16.80;55.30
29031;DHT22;16122;50.236;11.734;2023-03-14T13:36:05;16.90;55.30
29031;DHT22;16122;50.236;11.734;2023-03-14T13:38:34;16.90;55.30
29031;DHT22;16122;50.236;11.734;2023-03-14T13:41:04;16.80;55.30
29031;DHT22;16122;50.236;11.734;2023-03-14T13:43:32;16.80;55.30
29031;DHT22;16122;50.236;11.734;2023-03-14T13:46:06;16.80;55.20
29031;DHT22;16122;50.236;11.734;2023-03-14T13:48:34;16.80;55.30
29031;DHT22;16122;50.236;11.734;2023-03-14T13:51:05;16.80;55.30
29031;DHT22;16122;50.236;11.734;2023-03-14T13:53:32;16.80;55.30
29031;DHT22;16122;50.236;11.734;2023-03-14T13:56:02;16.80;55.20
29031;DHT22;16122;50.236;11.734;2023-03-14T13:58:30;16.80;55.20
29031;DHT22;16122;50.236;11.734;2023-03-14T14:01:02;16.80;55.20
29031;DHT22;16122;50.236;11.734;2023-03-14T14:03:32;16.80;55.20
29031;DHT22;16122;50.236;11.734;2023-03-14T14:05:58;16.80;55.10
29031;DHT22;16122;50.236;11.734;2023-03-14T14:08:25;16.80;55.10
29031;DHT22;16122;50.236;11.734;2023-03-14T14:10:55;16.80;55.10
29031;DHT22;16122;50.236;11.734;2023-03-14T14:13:22;16.80;55.10
29031;DHT22;16122;50.236;11.734;2023-03-14T14:15:52;16.80;55.00
29031;DHT22;16122;50.236;11.734;2023-03-14T14:18:20;16.80;55.60
29031;DHT22;16122;50.236;11.734;2023-03-14T14:20:49;16.70;55.00
29031;DHT22;16122;50.236;11.734;2023-03-14T14:23:20;16.70;55.00
29031;DHT22;16122;50.236;11.734;2023-03-14T14:25:52;16.70;55.10
29031;DHT22;16122;50.236;11.734;2023-03-14T14:28:28;16.80;55.20
29031;DHT22;16122;50.236;11.734;2023-03-14T14:33:45;16.70;55.50
29031;DHT22;16122;50.236;11.734;2023-03-14T14:36:21;16.70;55.70
29031;DHT22;16122;50.236;11.734;2023-03-14T14:39:19;16.70;55.50
29031;DHT22;16122;50.236;11.734;2023-03-14T14:41:44;16.70;55.30
29031;DHT22;16122;50.236;11.734;2023-03-14T14:44:13;16.70;55.20
29031;DHT22;16122;50.236;11.734;2023-03-14T14:46:42;16.70;55.10
29031;DHT22;16122;50.236;11.734;2023-03-14T14:49:19;16.70;55.20
29031;DHT22;16122;50.236;11.734;2023-03-14T14:51:49;16.70;55.20
29031;DHT22;16122;50.236;11.734;2023-03-14T14:54:19;16.70;55.10
29031;DHT22;16122;50.236;11.734;2023-03-14T14:56:50;16.70;55.00
29031;DHT22;16122;50.236;11.734;2023-03-14T14:59:25;16.70;55.10
29031;DHT22;16122;50.236;11.734;2023-03-14T15:02:01;16.70;55.10
29031;DHT22;16122;50.236;11.734;2023-03-14T15:04:30;16.70;55.10
29031;DHT22;16122;50.236;11.734;2023-03-14T15:06:56;16.70;55.20
29031;DHT22;16122;50.236;11.734;2023-03-14T15:09:22;16.70;55.30
29031;DHT22;16122;50.236;11.734;2023-03-14T15:11:48;16.70;55.40
29031;DHT22;16122;50.236;11.734;2023-03-14T15:14:14;16.60;55.50
29031;DHT22;16122;50.236;11.734;2023-03-14T15:16:40;16.60;55.70
29031;DHT22;16122;50.236;11.734;2023-03-14T15:19:21;16.70;55.90
29031;DHT22;16122;50.236;11.734;2023-03-14T15:21:47;16.60;56.10
29031;DHT22;16122;50.236;11.734;2023-03-14T15:24:13;16.60;56.40
29031;DHT22;16122;50.236;11.734;2023-03-14T15:26:38;16.60;56.60
29031;DHT22;16122;50.236;11.734;2023-03-14T15:29:04;16.70;56.80
29031;DHT22;16122;50.236;11.734;2023-03-14T15:31:34;16.70;57.00
29031;DHT22;16122;50.236;11.734;2023-03-14T15:34:00;16.70;57.10
29031;DHT22;16122;50.236;11.734;2023-03-14T15:36:28;16.60;57.10
29031;DHT22;16122;50.236;11.734;2023-03-14T15:38:55;16.70;57.40
29031;DHT22;16122;50.236;11.734;2023-03-14T15:41:21;16.70;57.40
29031;DHT22;16122;50.236;11.734;2023-03-14T15:43:48;16.70;57.40
29031;DHT22;16122;50.236;11.734;2023-03-14T15:46:14;16.70;57.40
29031;DHT22;16122;50.236;11.734;2023-03-14T15:48:43;16.70;57.50
29031;DHT22;16122;50.236;11.734;2023-03-14T15:51:10;16.70;57.50
29031;DHT22;16122;50.236;11.734;2023-03-14T15:53:36;16.70;57.60
29031;DHT22;16122;50.236;11.734;2023-03-14T15:56:06;16.70;57.60
29031;DHT22;16122;50.236;11.734;2023-03-14T15:58:33;16.70;57.60
29031;DHT22;16122;50.236;11.734;2023-03-14T16:01:00;16.70;57.70
29031;DHT22;16122;50.236;11.734;2023-03-14T16:03:27;16.70;57.70
29031;DHT22;16122;50.236;11.734;2023-03-14T16:05:54;16.70;57.70
29031;DHT22;16122;50.236;11.734;2023-03-14T16:08:21;16.70;57.80
29031;DHT22;16122;50.236;11.734;2023-03-14T16:10:48;16.70;57.80
29031;DHT22;16122;50.236;11.734;2023-03-14T16:13:15;16.80;58.00
29031;DHT22;16122;50.236;11.734;2023-03-14T16:15:41;16.80;57.90
29031;DHT22;16122;50.236;11.734;2023-03-14T16:18:06;16.70;57.70
29031;DHT22;16122;50.236;11.734;2023-03-14T16:20:32;16.80;57.80
29031;DHT22;16122;50.236;11.734;2023-03-14T16:22:58;16.80;57.80
29031;DHT22;16122;50.236;11.734;2023-03-14T16:25:24;16.80;57.80
29031;DHT22;16122;50.236;11.734;2023-03-14T16:27:50;16.80;57.80
29031;DHT22;16122;50.236;11.734;2023-03-14T16:30:16;16.80;57.70
29031;DHT22;16122;50.236;11.734;2023-03-14T16:32:41;16.80;57.70
29031;DHT22;16122;50.236;11.734;2023-03-14T16:35:07;16.80;57.60
29031;DHT22;16122;50.236;11.734;2023-03-14T16:37:34;16.80;57.60